createdAt,value
2018-05-31T00:01:36.631Z,108.60
2018-05-31T00:04:04.115Z,122.17
2018-05-31T00:06:31.597Z,116.27
2018-05-31T00:08:59.834Z,111.17
2018-05-31T00:11:27.313Z,122.80
2018-05-31T00:13:54.798Z,126.93
2018-05-31T00:16:22.279Z,119.83
2018-05-31T00:18:49.749Z,126.30
2018-05-31T00:21:17.240Z,126.10
2018-05-31T00:23:44.699Z,131.47
2018-05-31T00:26:12.173Z,118.80
2018-05-31T00:28:40.421Z,127.23
2018-05-31T00:31:07.905Z,120.20
2018-05-31T00:33:36.132Z,129.37
2018-05-31T00:36:03.606Z,130.13
2018-05-31T00:38:31.085Z,134.37
2018-05-31T00:40:59.312Z,128.27
2018-05-31T00:43:26.796Z,133.47
2018-05-31T00:45:54.260Z,127.87
2018-05-31T00:48:21.736Z,124.57
2018-05-31T00:50:49.967Z,115.67
2018-05-31T00:53:17.449Z,123.43
2018-05-31T00:55:56.742Z,118.57
2018-05-31T00:58:24.228Z,120.53
2018-05-31T01:00:51.691Z,115.00
2018-05-31T01:03:19.172Z,131.33
2018-05-31T01:05:47.404Z,116.20
2018-05-31T01:08:14.880Z,121.17
2018-05-31T01:10:42.352Z,121.67
2018-05-31T01:13:10.597Z,115.20
2018-05-31T01:15:38.057Z,132.83
2018-05-31T01:18:06.290Z,110.20
2018-05-31T01:20:33.759Z,117.73
2018-05-31T01:23:01.229Z,129.10
2018-05-31T01:25:28.700Z,113.50
2018-05-31T01:27:56.172Z,114.97
2018-05-31T01:30:23.645Z,140.27
2018-05-31T01:32:51.887Z,114.70
2018-05-31T01:35:19.356Z,120.23
2018-05-31T01:37:47.729Z,144.57
2018-05-31T01:40:15.202Z,109.87
2018-05-31T01:42:42.669Z,121.67
2018-05-31T01:45:10.917Z,129.93
2018-05-31T01:47:38.385Z,118.83
2018-05-31T01:50:05.869Z,119.37
2018-05-31T01:52:34.100Z,116.33
2018-05-31T01:55:01.577Z,137.87
2018-05-31T01:57:29.075Z,137.63
2018-05-31T01:59:56.551Z,136.67
2018-05-31T02:02:24.028Z,121.90
2018-05-31T02:04:51.496Z,127.60
2018-05-31T02:07:18.984Z,126.13
2018-05-31T02:09:47.232Z,126.00
2018-05-31T02:12:14.696Z,138.20
2018-05-31T02:14:42.171Z,129.10
2018-05-31T02:17:10.407Z,135.33
2018-05-31T02:19:37.880Z,137.07
2018-05-31T02:22:05.352Z,131.47
2018-05-31T02:24:33.595Z,160.30
2018-05-31T02:27:01.076Z,178.27
2018-05-31T02:29:28.551Z,115.97
2018-05-31T02:31:56.788Z,139.53
2018-05-31T02:34:24.260Z,150.30
2018-05-31T02:36:51.733Z,120.27
2018-05-31T02:39:19.963Z,126.07
2018-05-31T02:41:47.444Z,122.80
2018-05-31T02:44:14.909Z,135.37
2018-05-31T02:46:42.377Z,136.10
2018-05-31T02:49:10.620Z,133.30
2018-05-31T02:51:38.097Z,148.07
2018-05-31T02:54:05.561Z,133.67
2018-05-31T02:56:33.804Z,147.33
2018-05-31T02:59:01.267Z,147.50
2018-05-31T03:01:28.740Z,148.83
2018-05-31T03:03:56.224Z,112.47
2018-05-31T03:06:23.692Z,133.23
2018-05-31T03:08:51.924Z,124.37
2018-05-31T03:11:19.395Z,134.17
2018-05-31T03:13:46.859Z,124.67
2018-05-31T03:16:15.101Z,141.93
2018-05-31T03:18:42.564Z,131.63
2018-05-31T03:21:10.040Z,124.67
2018-05-31T03:23:38.278Z,139.03
2018-05-31T03:26:05.733Z,118.03
2018-05-31T03:28:33.218Z,123.50
2018-05-31T03:31:00.680Z,128.50
2018-05-31T03:33:28.152Z,131.43
2018-05-31T03:35:56.396Z,140.17
2018-05-31T03:38:23.872Z,122.77
2018-05-31T03:40:51.336Z,123.47
2018-05-31T03:43:19.581Z,122.50
2018-05-31T03:45:47.069Z,147.33
2018-05-31T03:48:15.340Z,120.00
2018-05-31T03:50:43.587Z,155.53
2018-05-31T03:53:11.078Z,135.73
2018-05-31T03:55:39.323Z,125.37
2018-05-31T03:58:06.788Z,125.23
2018-05-31T04:00:34.274Z,143.57
2018-05-31T04:03:02.504Z,123.93
2018-05-31T04:05:29.985Z,133.43
2018-05-31T04:07:57.448Z,147.10
2018-05-31T04:10:25.688Z,135.47
2018-05-31T04:12:53.152Z,136.33
2018-05-31T04:15:20.681Z,135.33
2018-05-31T04:17:48.149Z,143.40
2018-05-31T04:20:15.680Z,134.00
2018-05-31T04:22:43.161Z,137.87
2018-05-31T04:25:10.625Z,129.47
2018-05-31T04:27:38.104Z,131.97
2018-05-31T04:30:05.569Z,133.83
2018-05-31T04:32:33.043Z,129.83
2018-05-31T04:35:01.279Z,120.27
2018-05-31T04:37:28.819Z,122.93
2018-05-31T04:39:56.287Z,128.43
2018-05-31T04:42:23.767Z,126.97
2018-05-31T04:44:51.223Z,126.60
2018-05-31T04:47:18.749Z,130.40
2018-05-31T04:49:46.214Z,113.70
2018-05-31T04:52:13.675Z,121.77
2018-05-31T04:54:41.961Z,131.50
2018-05-31T04:57:09.500Z,118.10
2018-05-31T04:59:36.974Z,115.90
2018-05-31T05:02:04.448Z,124.80
2018-05-31T05:04:31.918Z,117.17
2018-05-31T05:06:59.460Z,116.53
2018-05-31T05:09:26.929Z,113.80
2018-05-31T05:11:54.404Z,122.77
2018-05-31T05:14:22.636Z,116.60
2018-05-31T05:16:50.117Z,107.90
2018-05-31T05:19:17.588Z,108.87
2018-05-31T05:21:45.830Z,119.57
2018-05-31T05:24:13.304Z,118.23
2018-05-31T05:26:40.772Z,106.47
2018-05-31T05:29:09.025Z,105.97
2018-05-31T05:31:36.488Z,106.67
2018-05-31T05:34:03.958Z,105.30
2018-05-31T05:36:32.203Z,110.47
2018-05-31T05:38:59.664Z,106.83
2018-05-31T05:41:27.135Z,112.90
2018-05-31T05:43:54.618Z,102.97
2018-05-31T05:46:22.857Z,103.10
2018-05-31T05:48:50.340Z,106.80
2018-05-31T05:51:18.596Z,99.40
2018-05-31T05:53:46.072Z,105.03
2018-05-31T05:56:14.324Z,97.63
2018-05-31T05:58:41.792Z,98.90
2018-05-31T06:01:09.273Z,104.83
2018-05-31T06:03:37.509Z,105.40
2018-05-31T06:06:04.990Z,105.20
2018-05-31T06:08:32.460Z,109.77
2018-05-31T06:11:00.705Z,110.07
2018-05-31T06:13:28.192Z,99.03
2018-05-31T06:15:56.440Z,101.20
2018-05-31T06:18:23.933Z,93.17
2018-05-31T06:20:51.401Z,89.97
2018-05-31T06:23:18.883Z,89.50
2018-05-31T06:25:46.361Z,98.27
2018-05-31T06:28:13.824Z,97.07
2018-05-31T06:30:41.298Z,91.13
2018-05-31T06:33:09.541Z,89.30
2018-05-31T06:35:37.017Z,88.30
2018-05-31T06:38:04.484Z,90.97
2018-05-31T06:40:31.944Z,84.37
2018-05-31T06:43:00.207Z,85.80
2018-05-31T06:45:27.652Z,83.80
2018-05-31T06:47:55.105Z,79.80
2018-05-31T06:50:22.571Z,83.70
2018-05-31T06:52:50.807Z,82.30
2018-05-31T06:55:18.305Z,83.57
2018-05-31T06:57:45.760Z,80.10
2018-05-31T07:00:13.996Z,81.93
2018-05-31T07:02:41.496Z,77.80
2018-05-31T07:05:08.960Z,80.17
2018-05-31T07:07:37.200Z,76.77
2018-05-31T07:10:04.664Z,79.57
2018-05-31T07:12:32.127Z,81.20
2018-05-31T07:14:59.601Z,71.50
2018-05-31T07:17:27.052Z,76.63
2018-05-31T07:19:54.516Z,74.77
2018-05-31T07:22:21.976Z,76.70
2018-05-31T07:24:49.442Z,76.07
2018-05-31T07:27:17.689Z,74.83
2018-05-31T07:29:45.146Z,73.07
2018-05-31T07:32:12.612Z,70.40
2018-05-31T07:34:40.085Z,71.97
2018-05-31T07:37:08.305Z,74.60
2018-05-31T07:39:35.769Z,73.23
2018-05-31T07:42:03.240Z,68.63
2018-05-31T07:44:30.701Z,82.67
2018-05-31T07:46:58.165Z,82.20
2018-05-31T07:49:26.444Z,78.37
2018-05-31T07:51:55.413Z,75.90
2018-05-31T07:54:22.884Z,77.53
2018-05-31T07:56:50.512Z,67.83
2018-05-31T07:59:17.984Z,68.13
2018-05-31T08:01:45.461Z,73.10
2018-05-31T08:04:12.929Z,66.40
2018-05-31T08:06:40.381Z,60.90
2018-05-31T08:09:07.859Z,54.73
2018-05-31T08:11:36.076Z,54.00
2018-05-31T08:14:03.557Z,55.10
2018-05-31T08:16:31.025Z,59.60
2018-05-31T08:18:58.485Z,57.20
2018-05-31T08:21:25.959Z,54.17
2018-05-31T08:23:54.186Z,59.00
2018-05-31T08:26:21.654Z,55.97
2018-05-31T08:28:49.120Z,51.40
2018-05-31T08:31:16.589Z,56.20
2018-05-31T08:33:44.057Z,61.03
2018-05-31T08:36:11.560Z,59.43
2018-05-31T08:38:39.049Z,60.73
2018-05-31T08:41:06.521Z,61.07
2018-05-31T08:43:33.989Z,59.80
2018-05-31T08:46:02.238Z,63.20
2018-05-31T08:48:29.694Z,63.53
2018-05-31T08:50:57.167Z,65.90
2018-05-31T08:53:24.628Z,64.53
2018-05-31T08:55:52.080Z,72.00
2018-05-31T08:58:20.456Z,76.20
2018-05-31T09:00:47.937Z,78.33
2018-05-31T09:03:16.171Z,75.47
2018-05-31T09:05:43.645Z,77.13
2018-05-31T09:08:11.117Z,79.87
2018-05-31T09:10:39.567Z,84.80
2018-05-31T09:13:07.035Z,89.70
2018-05-31T09:15:34.492Z,93.40
2018-05-31T09:18:02.732Z,68.30
2018-05-31T09:20:30.187Z,36.20
2018-05-31T09:22:57.659Z,38.20
2018-05-31T09:25:25.121Z,39.87
2018-05-31T09:27:52.577Z,32.93
2018-05-31T09:30:20.045Z,24.20
2018-05-31T09:32:47.501Z,15.30
2018-05-31T09:35:14.969Z,11.13
2018-05-31T09:37:42.446Z,12.13
2018-05-31T09:40:10.671Z,11.27
2018-05-31T09:42:38.133Z,11.30
2018-05-31T09:45:05.596Z,9.30
2018-05-31T09:47:33.057Z,11.53
2018-05-31T09:50:00.532Z,13.43
2018-05-31T09:52:28.758Z,12.67
2018-05-31T09:54:56.217Z,15.97
2018-05-31T09:57:23.696Z,19.77
2018-05-31T09:59:51.157Z,17.60
2018-05-31T10:02:18.612Z,16.07
2018-05-31T10:04:46.082Z,17.10
2018-05-31T10:07:13.542Z,13.10
2018-05-31T10:09:41.016Z,12.00
2018-05-31T10:12:09.248Z,8.70
2018-05-31T10:14:36.704Z,9.10
2018-05-31T10:17:04.174Z,8.60
2018-05-31T10:19:32.392Z,8.30
2018-05-31T10:21:59.850Z,8.73
2018-05-31T10:24:28.316Z,8.93
2018-05-31T10:26:56.544Z,9.57
2018-05-31T10:29:24.009Z,11.50
2018-05-31T10:31:51.473Z,14.13
2018-05-31T10:34:19.017Z,11.53
2018-05-31T10:36:46.460Z,10.63
2018-05-31T10:39:13.924Z,11.13
2018-05-31T10:41:41.391Z,11.17
2018-05-31T10:44:08.849Z,10.23
2018-05-31T10:46:36.337Z,10.70
2018-05-31T10:49:03.800Z,9.27
2018-05-31T10:51:32.020Z,8.47
2018-05-31T10:53:59.489Z,7.40
2018-05-31T10:56:26.949Z,8.07
2018-05-31T10:58:54.424Z,8.13
2018-05-31T11:01:21.876Z,8.43
2018-05-31T11:03:49.340Z,6.23
2018-05-31T11:06:16.808Z,6.70
2018-05-31T11:08:44.352Z,6.50
2018-05-31T11:11:11.763Z,7.90
2018-05-31T11:13:39.221Z,7.50
2018-05-31T11:16:06.701Z,8.43
2018-05-31T11:18:34.154Z,8.67
2018-05-31T11:21:01.613Z,7.20
2018-05-31T11:23:29.076Z,8.67
2018-05-31T11:25:56.556Z,7.80
2018-05-31T11:28:24.028Z,7.53
2018-05-31T11:30:52.257Z,8.03
2018-05-31T11:33:19.709Z,7.87
2018-05-31T11:35:47.176Z,4.90
2018-05-31T11:38:14.632Z,7.13
2018-05-31T11:40:42.096Z,6.13
2018-05-31T11:43:09.565Z,6.17
2018-05-31T11:45:37.024Z,6.43
2018-05-31T11:48:04.486Z,5.77
2018-05-31T11:50:31.940Z,4.70
2018-05-31T11:52:59.391Z,5.17
2018-05-31T11:55:26.860Z,6.93
2018-05-31T11:57:54.332Z,7.10
2018-05-31T12:00:22.561Z,6.73
2018-05-31T12:02:50.025Z,5.93
2018-05-31T12:05:17.476Z,6.97
2018-05-31T12:07:44.932Z,6.43
2018-05-31T12:10:12.404Z,4.87
2018-05-31T12:12:39.872Z,4.67
2018-05-31T12:15:07.337Z,4.00
2018-05-31T12:17:35.591Z,3.70
2018-05-31T12:22:37.020Z,4.33
2018-05-31T12:25:04.495Z,3.87
2018-05-31T12:27:31.976Z,5.00
2018-05-31T12:29:59.417Z,5.00
2018-05-31T12:32:26.864Z,4.00
2018-05-31T12:34:54.320Z,4.17
2018-05-31T12:37:21.803Z,4.30
2018-05-31T12:39:49.255Z,4.50
2018-05-31T12:42:16.711Z,3.57
2018-05-31T12:44:44.167Z,4.30
2018-05-31T12:47:11.625Z,5.37
2018-05-31T12:49:39.096Z,5.30
2018-05-31T12:52:06.547Z,4.33
2018-05-31T12:54:34.004Z,4.47
2018-05-31T12:57:01.492Z,4.50
2018-05-31T12:59:28.949Z,4.77
2018-05-31T13:01:56.412Z,3.90
2018-05-31T13:04:23.864Z,3.83
2018-05-31T13:06:51.340Z,4.37
2018-05-31T13:09:18.797Z,3.50
2018-05-31T13:11:46.253Z,4.47
2018-05-31T13:14:13.724Z,4.33
2018-05-31T13:16:41.235Z,3.83
2018-05-31T13:19:09.459Z,4.80
2018-05-31T13:21:36.921Z,3.97
2018-05-31T13:24:04.377Z,4.57
2018-05-31T13:26:31.831Z,4.23
2018-05-31T13:28:59.295Z,4.60
2018-05-31T13:31:26.745Z,4.53
2018-05-31T13:33:54.215Z,4.83
2018-05-31T13:36:21.677Z,5.53
2018-05-31T13:38:49.152Z,4.47
2018-05-31T13:41:17.398Z,4.80
2018-05-31T13:43:44.856Z,5.47
2018-05-31T13:46:12.323Z,4.93
2018-05-31T13:48:39.804Z,5.73
2018-05-31T13:51:07.245Z,4.63
2018-05-31T13:53:34.700Z,5.93
2018-05-31T13:56:02.168Z,5.50
2018-05-31T13:58:29.631Z,4.50
2018-05-31T14:00:57.841Z,3.53
2018-05-31T14:03:25.297Z,4.03
2018-05-31T14:05:52.764Z,4.10
2018-05-31T14:08:20.221Z,4.63
2018-05-31T14:10:47.684Z,5.37
2018-05-31T14:13:15.137Z,5.37
2018-05-31T14:15:42.593Z,5.20
2018-05-31T14:18:10.056Z,5.20
2018-05-31T14:20:37.524Z,5.30
2018-05-31T14:23:04.992Z,5.40
2018-05-31T14:25:32.445Z,5.87
2018-05-31T14:27:59.908Z,6.17
2018-05-31T14:30:27.385Z,4.80
2018-05-31T14:32:55.600Z,4.80
2018-05-31T14:35:23.085Z,4.67
2018-05-31T14:37:50.540Z,4.90
2018-05-31T14:40:18.012Z,4.93
2018-05-31T14:42:45.477Z,4.80
2018-05-31T14:45:13.700Z,5.13
2018-05-31T14:47:41.162Z,6.10
2018-05-31T14:50:08.632Z,5.53
2018-05-31T14:52:36.084Z,4.90
2018-05-31T14:55:03.564Z,5.47
2018-05-31T14:57:31.021Z,6.97
2018-05-31T14:59:58.480Z,7.10
2018-05-31T15:02:25.945Z,6.53
2018-05-31T15:04:53.398Z,5.67
2018-05-31T15:07:20.853Z,7.00
2018-05-31T15:09:48.328Z,7.10
2018-05-31T15:12:16.565Z,6.03
2018-05-31T15:14:44.025Z,7.33
2018-05-31T15:17:11.481Z,7.40
2018-05-31T15:19:38.945Z,7.23
2018-05-31T15:22:06.425Z,7.63
2018-05-31T15:24:34.642Z,7.60
2018-05-31T15:27:02.128Z,7.63
2018-05-31T15:29:29.585Z,6.60
2018-05-31T15:31:57.038Z,6.20
2018-05-31T15:34:24.492Z,5.50
2018-05-31T15:36:51.957Z,5.03
2018-05-31T15:39:19.415Z,5.10
2018-05-31T15:41:46.884Z,4.43
2018-05-31T15:44:14.344Z,4.83
2018-05-31T15:46:41.851Z,5.57
2018-05-31T15:49:10.230Z,5.37
2018-05-31T15:51:37.684Z,5.90
2018-05-31T15:54:05.146Z,5.30
2018-05-31T15:56:32.630Z,5.10
2018-05-31T15:59:00.093Z,7.07
2018-05-31T16:01:27.570Z,6.80
2018-05-31T16:03:55.804Z,5.97
2018-05-31T16:06:24.268Z,5.10
2018-05-31T16:08:51.745Z,4.83
2018-05-31T16:11:19.205Z,5.40
2018-05-31T16:13:46.688Z,6.00
2018-05-31T16:16:14.139Z,6.17
2018-05-31T16:18:41.597Z,7.50
2018-05-31T16:21:09.044Z,5.87
2018-05-31T16:23:36.528Z,5.50
2018-05-31T16:26:04.751Z,4.93
2018-05-31T16:28:32.273Z,6.27
2018-05-31T16:30:59.712Z,8.40
2018-05-31T16:33:27.935Z,14.73
2018-05-31T16:35:55.411Z,14.60
2018-05-31T16:38:22.869Z,15.67
2018-05-31T16:40:50.372Z,16.43
2018-05-31T16:43:17.866Z,14.90
2018-05-31T16:45:45.321Z,14.80
2018-05-31T16:48:12.777Z,15.33
2018-05-31T16:50:40.248Z,13.07
2018-05-31T16:53:07.764Z,13.80
2018-05-31T16:55:35.245Z,13.77
2018-05-31T16:58:02.701Z,14.57
2018-05-31T17:00:30.207Z,14.20
2018-05-31T17:02:57.640Z,12.17
2018-05-31T17:05:25.109Z,11.20
2018-05-31T17:07:52.573Z,11.10
2018-05-31T17:10:20.116Z,9.10
2018-05-31T17:12:47.620Z,10.00
2018-05-31T17:15:16.101Z,10.17
2018-05-31T17:17:43.579Z,7.83
2018-05-31T17:20:11.056Z,9.33
2018-05-31T17:22:38.521Z,10.00
2018-05-31T17:25:05.997Z,8.60
2018-05-31T17:27:33.457Z,7.27
2018-05-31T17:30:00.933Z,7.00
2018-05-31T17:32:29.170Z,7.13
2018-05-31T17:34:56.617Z,7.20
2018-05-31T17:37:24.093Z,5.70
2018-05-31T17:39:51.548Z,5.77
2018-05-31T17:42:19.006Z,6.57
2018-05-31T17:44:46.472Z,5.77
2018-05-31T17:47:13.924Z,6.53
2018-05-31T17:49:41.401Z,4.50
2018-05-31T17:52:09.632Z,4.77
2018-05-31T17:54:37.105Z,4.80
2018-05-31T17:57:04.584Z,4.60
2018-05-31T17:59:32.808Z,4.93
2018-05-31T18:02:00.273Z,4.97
2018-05-31T18:04:27.733Z,5.60
2018-05-31T18:06:55.200Z,5.80
2018-05-31T18:09:22.668Z,5.13
2018-05-31T18:11:50.129Z,5.63
2018-05-31T18:14:17.620Z,5.80
2018-05-31T18:16:45.067Z,6.80
2018-05-31T18:19:13.288Z,5.70
2018-05-31T18:21:40.752Z,5.67
2018-05-31T18:24:08.221Z,6.17
2018-05-31T18:26:35.722Z,6.30
2018-05-31T18:29:03.198Z,6.63
2018-05-31T18:31:30.660Z,6.37
2018-05-31T18:33:58.952Z,8.13
2018-05-31T18:36:26.411Z,7.10
2018-05-31T18:38:53.892Z,7.30
2018-05-31T18:41:21.353Z,7.10
2018-05-31T18:43:48.808Z,8.23
2018-05-31T18:46:17.043Z,8.30
2018-05-31T18:48:44.537Z,8.33
2018-05-31T18:51:26.854Z,7.23
2018-05-31T18:53:55.101Z,7.40
2018-05-31T18:56:22.589Z,7.40
2018-05-31T18:58:50.816Z,7.20
2018-05-31T19:01:18.296Z,7.30
2018-05-31T19:03:45.757Z,7.10
2018-05-31T19:06:13.233Z,7.80
2018-05-31T19:08:41.485Z,8.03
2018-05-31T19:11:08.953Z,8.80
2018-05-31T19:13:42.204Z,8.50
2018-05-31T19:16:09.664Z,10.40
2018-05-31T19:18:42.833Z,8.10
2018-05-31T19:21:10.296Z,9.70
2018-05-31T19:23:37.778Z,7.80
2018-05-31T19:26:05.256Z,10.27
2018-05-31T19:28:32.721Z,10.37
2018-05-31T19:31:05.818Z,9.03
2018-05-31T19:33:34.037Z,8.43
2018-05-31T19:36:07.315Z,9.23
2018-05-31T19:38:34.785Z,10.87
2018-05-31T19:41:02.241Z,9.57
2018-05-31T19:43:35.463Z,10.77
2018-05-31T19:46:02.936Z,12.37
2018-05-31T19:48:30.397Z,12.10
2018-05-31T19:50:57.909Z,9.97
2018-05-31T19:53:30.993Z,12.20
2018-05-31T19:55:58.468Z,10.37
2018-05-31T19:58:31.676Z,10.33
2018-05-31T20:01:04.848Z,13.37
2018-05-31T20:03:34.890Z,13.00
2018-05-31T20:06:02.356Z,12.53
2018-05-31T20:08:29.820Z,12.30
2018-05-31T20:10:58.064Z,12.77
2018-05-31T20:13:25.533Z,13.10
2018-05-31T20:15:53.004Z,13.70
2018-05-31T20:18:21.237Z,13.70
2018-05-31T20:20:48.735Z,14.53
2018-05-31T20:23:16.177Z,15.73
2018-05-31T20:25:43.645Z,16.27
2018-05-31T20:28:11.147Z,17.63
2018-05-31T20:30:38.614Z,16.13
2018-05-31T20:33:06.076Z,16.70
2018-05-31T20:35:33.552Z,18.17
2018-05-31T20:38:01.022Z,18.13
2018-05-31T20:40:28.492Z,17.93
2018-05-31T20:42:55.946Z,17.90
2018-05-31T20:45:23.422Z,17.80
2018-05-31T20:47:51.652Z,19.30
2018-05-31T20:50:19.120Z,17.77
2018-05-31T20:52:46.577Z,19.00
2018-05-31T20:55:14.044Z,21.27
2018-05-31T20:57:41.533Z,22.60
2018-05-31T21:00:09.000Z,21.27
2018-05-31T21:02:36.452Z,21.00
2018-05-31T21:05:03.932Z,22.50
2018-05-31T21:07:31.391Z,22.37
2018-05-31T21:09:58.871Z,21.93
2018-05-31T21:12:26.340Z,22.30
2018-05-31T21:14:53.807Z,22.63
2018-05-31T21:17:22.053Z,24.37
2018-05-31T21:19:49.515Z,23.07
2018-05-31T21:22:16.992Z,25.87
2018-05-31T21:24:44.492Z,26.00
2018-05-31T21:27:11.944Z,25.37
2018-05-31T21:29:39.401Z,24.43
2018-05-31T21:32:06.877Z,27.27
2018-05-31T21:34:34.333Z,23.27
2018-05-31T21:37:01.799Z,24.13
2018-05-31T21:39:30.058Z,26.27
2018-05-31T21:41:57.522Z,27.13
2018-05-31T21:44:25.000Z,26.93
2018-05-31T21:46:52.463Z,27.53
2018-05-31T21:49:19.929Z,24.77
2018-05-31T21:51:47.390Z,26.83
2018-05-31T21:54:14.847Z,28.97
2018-05-31T21:56:42.316Z,26.93
2018-05-31T21:59:10.561Z,30.10
2018-05-31T22:01:38.040Z,29.10
2018-05-31T22:04:06.274Z,30.53
2018-05-31T22:06:33.749Z,30.70
2018-05-31T22:09:01.207Z,29.50
2018-05-31T22:11:28.727Z,31.50
2018-05-31T22:13:56.929Z,35.20
2018-05-31T22:16:24.393Z,34.23
2018-05-31T22:18:51.871Z,33.13
2018-05-31T22:21:19.349Z,31.57
2018-05-31T22:23:47.580Z,33.47
2018-05-31T22:26:15.045Z,34.87
2018-05-31T22:28:42.526Z,33.20
2018-05-31T22:31:10.745Z,34.90
2018-05-31T22:33:38.217Z,35.40
2018-05-31T22:36:05.688Z,38.60
2018-05-31T22:38:33.150Z,34.70
2018-05-31T22:41:00.628Z,33.43
2018-05-31T22:43:28.891Z,33.13
2018-05-31T22:45:56.398Z,33.40
2018-05-31T22:48:23.817Z,34.20
2018-05-31T22:50:52.056Z,33.97
2018-05-31T22:53:19.524Z,33.77
2018-05-31T22:55:47.001Z,33.63
2018-05-31T22:58:14.457Z,34.10
2018-05-31T23:00:42.701Z,35.87
2018-05-31T23:03:10.160Z,32.57
2018-05-31T23:05:37.633Z,30.50
2018-05-31T23:08:05.106Z,33.17
2018-05-31T23:10:33.339Z,31.40
2018-05-31T23:13:00.808Z,33.90
2018-05-31T23:15:28.269Z,33.97
2018-05-31T23:17:55.729Z,33.23
2018-05-31T23:20:23.351Z,33.13
2018-05-31T23:22:50.803Z,34.03
2018-05-31T23:25:18.377Z,33.03
2018-05-31T23:27:45.851Z,33.30
2018-05-31T23:30:13.316Z,36.23
2018-05-31T23:32:40.798Z,32.83
2018-05-31T23:35:09.023Z,35.93
2018-05-31T23:37:36.496Z,33.60
2018-05-31T23:40:03.954Z,35.37
2018-05-31T23:42:31.430Z,38.13
2018-05-31T23:44:58.907Z,36.70
2018-05-31T23:47:27.128Z,35.47
2018-05-31T23:49:54.600Z,36.13
2018-05-31T23:52:22.069Z,34.20
2018-05-31T23:54:49.532Z,38.87
2018-05-31T23:57:16.991Z,37.70
2018-05-31T23:59:44.452Z,39.03
